Time;durP1;ratioP1;P1;durP2;ratioP2;P2;SDS_P1;SDS_P2;PMS_P1;PMS_P2;Temp;Humidity;BMP_temperature;BMP_pressure;BME280_temperature;BME280_humidity;BME280_pressure;Samples;Min_cycle;Max_cycle;Signal;HPM_P1;HPM_P2
2022/06/02 00:00:45;;;;;;;9.35;6.85;;;;;;;;;;5106774;28;20031;-50
2022/06/02 00:03:28;;;;;;;15.50;5.93;;;;;;;;;;5107850;27;20529;-49
2022/06/02 00:05:53;;;;;;;8.52;4.68;;;;;;;;;;5114088;27;20058;-51
2022/06/02 00:08:24;;;;;;;13.07;4.72;;;;;;;;;;5114530;28;20048;-53
2022/06/02 00:11:00;;;;;;;10.32;5.55;;;;;;;;;;5111899;27;20073;-53
2022/06/02 00:13:41;;;;;;;8.25;5.43;;;;;;;;;;5112808;27;20092;-53
2022/06/02 00:16:10;;;;;;;6.57;5.18;;;;;;;;;;5103779;27;20420;-50
2022/06/02 00:18:40;;;;;;;11.88;5.90;;;;;;;;;;5113835;28;20035;-48
2022/06/02 00:21:06;;;;;;;7.60;4.55;;;;;;;;;;5116673;28;20126;-52
2022/06/02 00:23:31;;;;;;;5.43;3.63;;;;;;;;;;5098120;28;20130;-47
2022/06/02 00:26:07;;;;;;;8.80;4.82;;;;;;;;;;5094049;27;20130;-53
2022/06/02 00:28:48;;;;;;;6.88;4.53;;;;;;;;;;5108483;27;20262;-51
2022/06/02 00:31:32;;;;;;;6.10;4.55;;;;;;;;;;5120426;28;20047;-51
2022/06/02 00:34:00;;;;;;;8.43;5.50;;;;;;;;;;5120835;28;20123;-51
2022/06/02 00:36:30;;;;;;;6.43;4.88;;;;;;;;;;5118777;28;20047;-49
2022/06/02 00:38:59;;;;;;;6.60;5.43;;;;;;;;;;5117908;28;20070;-53
2022/06/02 00:41:40;;;;;;;7.47;4.57;;;;;;;;;;5116609;28;20569;-48
2022/06/02 00:44:21;;;;;;;10.05;6.03;;;;;;;;;;5120126;28;20052;-50
2022/06/02 00:46:50;;;;;;;13.30;6.60;;;;;;;;;;5116737;28;20073;-52
2022/06/02 00:49:21;;;;;;;14.40;5.72;;;;;;;;;;5117851;28;20185;-49
2022/06/02 00:52:05;;;;;;;5.22;4.43;;;;;;;;;;5118077;28;20040;-53
2022/06/02 00:57:39;;;;;;;4.60;4.15;;;;;;;;;;5092954;28;20074;-51
2022/06/02 01:00:05;;;;;;;8.82;5.05;;;;;;;;;;5110845;27;20664;-49
2022/06/02 01:02:33;;;;;;;5.78;4.72;;;;;;;;;;5114838;28;20156;-51
2022/06/02 01:05:00;;;;;;;12.57;5.72;;;;;;;;;;5118250;28;20051;-50
2022/06/02 01:07:41;;;;;;;8.95;4.70;;;;;;;;;;5116319;28;20561;-52
2022/06/02 01:10:27;;;;;;;10.43;6.18;;;;;;;;;;5098449;28;20126;-52
2022/06/02 01:12:55;;;;;;;11.60;5.50;;;;;;;;;;5117535;27;20032;-51
2022/06/02 01:15:23;;;;;;;12.48;6.50;;;;;;;;;;5113760;27;20054;-52
2022/06/02 01:18:07;;;;;;;6.65;5.45;;;;;;;;;;5117660;27;20123;-52
2022/06/02 01:20:52;;;;;;;9.68;5.97;;;;;;;;;;5120142;27;20166;-51
2022/06/02 01:23:21;;;;;;;9.38;5.75;;;;;;;;;;5109348;27;20044;-51
2022/06/02 01:25:52;;;;;;;6.68;4.57;;;;;;;;;;5106513;27;20086;-53
2022/06/02 01:28:22;;;;;;;10.88;4.80;;;;;;;;;;5114780;27;20043;-47
2022/06/02 01:31:08;;;;;;;6.88;4.38;;;;;;;;;;5122574;27;20051;-53
2022/06/02 01:33:41;;;;;;;7.80;4.25;;;;;;;;;;5110211;27;20059;-50
2022/06/02 01:36:06;;;;;;;8.23;5.53;;;;;;;;;;5102107;27;20119;-48
2022/06/02 01:38:31;;;;;;;5.13;4.43;;;;;;;;;;5113676;27;20127;-50
2022/06/02 01:40:57;;;;;;;5.10;4.07;;;;;;;;;;5112926;27;20044;-52
2022/06/02 01:43:25;;;;;;;8.75;5.20;;;;;;;;;;5113435;27;20032;-52
2022/06/02 01:45:53;;;;;;;11.85;5.35;;;;;;;;;;5110163;27;20052;-47
2022/06/02 01:48:37;;;;;;;11.93;6.43;;;;;;;;;;5108902;27;20043;-54
2022/06/02 01:51:12;;;;;;;7.43;5.75;;;;;;;;;;5119490;27;20958;-49
2022/06/02 01:53:52;;;;;;;7.45;4.75;;;;;;;;;;5120788;27;20040;-50
2022/06/02 01:56:24;;;;;;;3.70;2.95;;;;;;;;;;5116630;27;20047;-51
2022/06/02 01:59:01;;;;;;;7.50;5.13;;;;;;;;;;5117660;27;20089;-49
2022/06/02 02:01:41;;;;;;;6.15;4.13;;;;;;;;;;5123907;27;20044;-53
2022/06/02 02:04:25;;;;;;;10.40;4.45;;;;;;;;;;5119543;27;20532;-49
2022/06/02 02:07:02;;;;;;;8.00;4.65;;;;;;;;;;5119518;27;20047;-49
2022/06/02 02:09:35;;;;;;;10.02;4.80;;;;;;;;;;5119062;27;20035;-48
2022/06/02 02:12:00;;;;;;;12.68;5.25;;;;;;;;;;5103757;27;20053;-52
2022/06/02 02:14:26;;;;;;;14.02;5.97;;;;;;;;;;5120071;27;20122;-50
2022/06/02 02:17:17;;;;;;;8.68;6.43;;;;;;;;;;5120262;27;20043;-53
2022/06/02 02:19:49;;;;;;;8.02;4.82;;;;;;;;;;5117412;27;20039;-49
2022/06/02 02:22:14;;;;;;;5.13;3.88;;;;;;;;;;5115819;27;20031;-52
2022/06/02 02:24:45;;;;;;;4.35;3.95;;;;;;;;;;5114409;27;20071;-50
2022/06/02 02:27:13;;;;;;;5.72;4.28;;;;;;;;;;5116783;27;20044;-50
2022/06/02 02:29:50;;;;;;;11.45;4.57;;;;;;;;;;5108449;27;20124;-51
2022/06/02 02:32:23;;;;;;;6.68;3.95;;;;;;;;;;5113176;27;20052;-52
2022/06/02 02:35:07;;;;;;;8.95;4.20;;;;;;;;;;5117116;27;20156;-52
2022/06/02 02:37:54;;;;;;;6.18;4.70;;;;;;;;;;5120910;27;20109;-49
2022/06/02 02:40:24;;;;;;;9.93;5.13;;;;;;;;;;5123457;27;20036;-47
2022/06/02 02:42:53;;;;;;;12.23;5.10;;;;;;;;;;5113485;27;20138;-50
2022/06/02 02:45:19;;;;;;;9.48;5.25;;;;;;;;;;5118907;27;20050;-51
2022/06/02 02:47:44;;;;;;;9.00;4.75;;;;;;;;;;5118052;27;20043;-51
2022/06/02 02:50:18;;;;;;;6.65;4.55;;;;;;;;;;5114424;27;20411;-49
2022/06/02 02:52:44;;;;;;;9.63;5.53;;;;;;;;;;5106947;27;20043;-50
2022/06/02 02:55:18;;;;;;;7.80;4.80;;;;;;;;;;5121667;27;20594;-51
2022/06/02 02:57:55;;;;;;;6.68;4.40;;;;;;;;;;5117655;27;20044;-54
2022/06/02 03:00:20;;;;;;;6.78;4.30;;;;;;;;;;5120991;27;20058;-53
2022/06/02 03:02:58;;;;;;;5.47;4.57;;;;;;;;;;5119989;27;20035;-49
2022/06/02 03:05:32;;;;;;;4.20;3.80;;;;;;;;;;5116840;27;20031;-48
2022/06/02 03:08:05;;;;;;;5.05;3.97;;;;;;;;;;5118059;27;20172;-50
2022/06/02 03:10:35;;;;;;;6.57;4.40;;;;;;;;;;5109081;27;20101;-49
2022/06/02 03:13:19;;;;;;;11.85;6.03;;;;;;;;;;5121082;27;20082;-49
2022/06/02 03:15:48;;;;;;;5.88;3.85;;;;;;;;;;5120014;27;20043;-47
2022/06/02 03:18:13;;;;;;;5.43;4.90;;;;;;;;;;5118474;27;20538;-51
2022/06/02 03:20:39;;;;;;;8.60;5.03;;;;;;;;;;5117905;27;20043;-49
2022/06/02 03:23:07;;;;;;;8.57;4.70;;;;;;;;;;5114268;27;20131;-50
2022/06/02 03:25:32;;;;;;;11.23;5.50;;;;;;;;;;5115186;27;20112;-51
2022/06/02 03:28:04;;;;;;;12.68;6.30;;;;;;;;;;5118319;27;20043;-49
2022/06/02 03:30:34;;;;;;;5.95;5.18;;;;;;;;;;5110865;27;20059;-47
2022/06/02 03:33:09;;;;;;;41.88;7.80;;;;;;;;;;5105005;27;20050;-49
2022/06/02 03:35:46;;;;;;;8.32;5.25;;;;;;;;;;5103909;27;20109;-48
2022/06/02 03:38:17;;;;;;;11.60;5.15;;;;;;;;;;5104459;27;20051;-51
2022/06/02 03:40:42;;;;;;;6.80;5.20;;;;;;;;;;5110282;27;20086;-47
2022/06/02 03:43:14;;;;;;;7.68;4.25;;;;;;;;;;5114259;27;20063;-46
2022/06/02 03:45:42;;;;;;;8.68;5.50;;;;;;;;;;5107864;27;20370;-52
2022/06/02 03:48:26;;;;;;;9.48;4.40;;;;;;;;;;5103509;27;20032;-48
2022/06/02 03:50:59;;;;;;;8.95;4.57;;;;;;;;;;5112969;27;20051;-51
2022/06/02 03:53:48;;;;;;;7.55;4.95;;;;;;;;;;5112864;27;20040;-48
2022/06/02 03:56:30;;;;;;;18.30;6.13;;;;;;;;;;5087675;27;20051;-50
2022/06/02 03:59:03;;;;;;;4.13;3.22;;;;;;;;;;5109100;27;20614;-51
2022/06/02 04:01:32;;;;;;;11.50;4.53;;;;;;;;;;5121985;27;20054;-48
2022/06/02 04:03:58;;;;;;;5.13;4.53;;;;;;;;;;5116737;27;20117;-49
2022/06/02 04:06:35;;;;;;;14.27;5.38;;;;;;;;;;5117240;27;20424;-48
2022/06/02 04:09:05;;;;;;;5.80;4.72;;;;;;;;;;5098449;28;20065;-53
2022/06/02 04:14:42;;;;;;;7.70;4.28;;;;;;;;;;5116040;28;20062;-51
2022/06/02 04:17:26;;;;;;;7.68;4.80;;;;;;;;;;5117071;28;20040;-53
2022/06/02 04:22:58;;;;;;;7.63;3.95;;;;;;;;;;5113678;28;21015;-53
2022/06/02 04:25:35;;;;;;;11.00;5.10;;;;;;;;;;5111130;27;20511;-53
2022/06/02 04:28:10;;;;;;;9.43;5.82;;;;;;;;;;5117724;28;20035;-53
2022/06/02 04:30:50;;;;;;;10.32;5.32;;;;;;;;;;5106057;27;20569;-50
2022/06/02 04:33:18;;;;;;;88.18;15.35;;;;;;;;;;5115609;28;20055;-51
2022/06/02 04:36:02;;;;;;;13.77;6.85;;;;;;;;;;5117496;28;20082;-47
2022/06/02 04:38:30;;;;;;;15.68;7.18;;;;;;;;;;5116726;28;20063;-49
2022/06/02 04:41:15;;;;;;;7.07;4.38;;;;;;;;;;5114062;28;20395;-47
2022/06/02 04:43:43;;;;;;;13.73;6.13;;;;;;;;;;5120327;28;20070;-48
2022/06/02 04:46:17;;;;;;;12.00;7.72;;;;;;;;;;5115882;28;20035;-51
2022/06/02 04:48:45;;;;;;;7.88;5.88;;;;;;;;;;5119941;28;20142;-51
2022/06/02 04:51:10;;;;;;;14.63;5.68;;;;;;;;;;5120684;27;20113;-49
2022/06/02 04:53:42;;;;;;;15.10;6.07;;;;;;;;;;5125206;27;20484;-47
2022/06/02 04:56:26;;;;;;;5.10;4.60;;;;;;;;;;5124240;27;20035;-48
2022/06/02 04:58:52;;;;;;;8.15;5.68;;;;;;;;;;5121493;27;20058;-53
2022/06/02 05:01:26;;;;;;;9.73;5.80;;;;;;;;;;5117462;27;20410;-51
2022/06/02 05:03:58;;;;;;;8.40;5.38;;;;;;;;;;5122303;27;20039;-47
2022/06/02 05:06:32;;;;;;;7.18;4.15;;;;;;;;;;5122223;27;20172;-48
2022/06/02 05:09:16;;;;;;;8.57;4.75;;;;;;;;;;5121575;27;20043;-51
2022/06/02 05:11:47;;;;;;;9.60;4.68;;;;;;;;;;5119791;27;20101;-50
2022/06/02 05:14:16;;;;;;;13.15;7.22;;;;;;;;;;5115878;27;20059;-50
2022/06/02 05:16:41;;;;;;;14.00;3.78;;;;;;;;;;5117802;27;20058;-49
2022/06/02 05:19:25;;;;;;;16.55;4.82;;;;;;;;;;5121709;27;20067;-49
2022/06/02 05:22:07;;;;;;;4.47;4.03;;;;;;;;;;5120691;27;20043;-47
2022/06/02 05:24:41;;;;;;;7.47;4.63;;;;;;;;;;5119755;27;20067;-50
2022/06/02 05:27:07;;;;;;;10.50;6.10;;;;;;;;;;5120511;27;20099;-52
2022/06/02 05:29:38;;;;;;;10.50;5.30;;;;;;;;;;5119131;27;20424;-52
2022/06/02 05:32:07;;;;;;;5.65;4.57;;;;;;;;;;5119808;27;20043;-47
2022/06/02 05:34:38;;;;;;;19.45;6.25;;;;;;;;;;5115120;27;20054;-51
2022/06/02 05:37:04;;;;;;;7.95;5.78;;;;;;;;;;5117052;27;20100;-52
2022/06/02 05:39:34;;;;;;;18.95;6.18;;;;;;;;;;5118107;27;20043;-51
2022/06/02 05:42:06;;;;;;;12.77;5.90;;;;;;;;;;5119325;27;20043;-47
2022/06/02 05:44:34;;;;;;;29.80;15.15;;;;;;;;;;5106381;27;20071;-51
2022/06/02 05:47:09;;;;;;;49.83;11.13;;;;;;;;;;5115454;27;20074;-48
2022/06/02 05:49:37;;;;;;;11.05;6.43;;;;;;;;;;5112300;27;20051;-48
2022/06/02 05:52:06;;;;;;;17.42;8.70;;;;;;;;;;5120679;27;20042;-52
2022/06/02 05:54:37;;;;;;;29.92;8.50;;;;;;;;;;5117914;27;20557;-49
2022/06/02 05:57:17;;;;;;;66.68;15.15;;;;;;;;;;5119660;27;20047;-49
2022/06/02 05:59:51;;;;;;;39.42;8.90;;;;;;;;;;5118834;27;20083;-49
2022/06/02 06:02:16;;;;;;;39.72;10.18;;;;;;;;;;5118625;27;20049;-50
2022/06/02 06:05:00;;;;;;;24.55;7.15;;;;;;;;;;5119575;27;20122;-50
2022/06/02 06:07:35;;;;;;;10.50;7.10;;;;;;;;;;5119509;27;20138;-49
2022/06/02 06:10:00;;;;;;;74.80;19.50;;;;;;;;;;5118776;27;20104;-54
2022/06/02 06:12:44;;;;;;;9.95;7.18;;;;;;;;;;5117817;27;20055;-48
2022/06/02 06:15:09;;;;;;;1133.40;239.30;;;;;;;;;;5115072;27;20040;-51
2022/06/02 06:17:54;;;;;;;62.72;16.55;;;;;;;;;;5117799;27;20059;-53
2022/06/02 06:20:28;;;;;;;20.55;10.18;;;;;;;;;;5113775;27;20471;-52
2022/06/02 06:23:02;;;;;;;15.93;9.43;;;;;;;;;;5108281;27;20039;-55
2022/06/02 06:25:50;;;;;;;9.95;8.25;;;;;;;;;;5110227;27;20113;-51
2022/06/02 06:28:20;;;;;;;38.78;15.20;;;;;;;;;;5095656;27;20142;-52
2022/06/02 06:31:04;;;;;;;62.30;41.22;;;;;;;;;;5116078;27;20538;-52
2022/06/02 06:33:48;;;;;;;415.35;102.32;;;;;;;;;;5115401;27;20047;-52
2022/06/02 06:36:31;;;;;;;84.72;43.63;;;;;;;;;;5115510;27;20050;-49
2022/06/02 06:39:08;;;;;;;86.15;49.83;;;;;;;;;;5119027;27;20134;-53
2022/06/02 06:41:46;;;;;;;81.45;37.92;;;;;;;;;;5118906;27;20520;-50
2022/06/02 06:44:15;;;;;;;54.35;30.02;;;;;;;;;;5121107;27;20039;-45
2022/06/02 06:46:46;;;;;;;32.08;18.73;;;;;;;;;;5119225;27;20047;-51
2022/06/02 06:49:24;;;;;;;25.15;13.75;;;;;;;;;;5118274;27;20529;-48
2022/06/02 06:52:08;;;;;;;15.98;12.00;;;;;;;;;;5116207;27;20035;-51
2022/06/02 06:54:40;;;;;;;14.38;9.50;;;;;;;;;;5112334;27;20049;-54
2022/06/02 06:57:21;;;;;;;26.42;8.60;;;;;;;;;;5119049;27;20043;-49
2022/06/02 06:59:46;;;;;;;;;;;;;;;;;;5118631;27;20104;-49
2022/06/02 07:02:23;;;;;;;23.73;11.55;;;;;;;;;;5121299;27;19954;-49
2022/06/02 07:05:01;;;;;;;34.08;12.80;;;;;;;;;;5113621;27;20428;-46
2022/06/02 07:07:32;;;;;;;21.27;12.45;;;;;;;;;;5121795;27;20050;-49
2022/06/02 07:10:01;;;;;;;27.20;12.77;;;;;;;;;;5121966;27;20034;-50
2022/06/02 07:12:51;;;;;;;17.20;10.98;;;;;;;;;;5113972;27;20412;-52
2022/06/02 07:15:16;;;;;;;26.30;12.18;;;;;;;;;;5106157;27;20052;-51
2022/06/02 07:17:44;;;;;;;30.90;12.70;;;;;;;;;;5109528;27;20046;-50
2022/06/02 07:20:39;;;;;;;45.13;17.73;;;;;;;;;;5111405;27;20067;-52
2022/06/02 07:23:22;;;;;;;68.45;23.33;;;;;;;;;;5094530;27;20046;-47
2022/06/02 07:25:51;;;;;;;261.23;50.00;;;;;;;;;;5113808;27;20047;-51
2022/06/02 07:28:16;;;;;;;263.17;44.92;;;;;;;;;;5117549;27;20119;-49
2022/06/02 07:30:42;;;;;;;15.57;8.15;;;;;;;;;;5109091;27;20134;-53
2022/06/02 07:33:07;;;;;;;11.73;7.28;;;;;;;;;;5119465;27;20088;-52
2022/06/02 07:35:35;;;;;;;5.28;4.05;;;;;;;;;;5118253;27;20050;-54
2022/06/02 07:38:19;;;;;;;9.75;5.05;;;;;;;;;;5118670;27;20038;-48
2022/06/02 07:41:06;;;;;;;14.45;7.32;;;;;;;;;;5119090;27;20112;-55
2022/06/02 07:43:47;;;;;;;7.55;4.93;;;;;;;;;;5116498;27;20039;-56
2022/06/02 07:46:16;;;;;;;11.65;6.50;;;;;;;;;;5114510;27;20515;-53
2022/06/02 07:48:50;;;;;;;58.60;15.35;;;;;;;;;;5118589;27;20051;-52
2022/06/02 07:51:45;;;;;;;12.20;6.00;;;;;;;;;;5110944;27;20047;-51
2022/06/02 07:54:16;;;;;;;13.98;5.15;;;;;;;;;;5059854;27;20964;-52
2022/06/02 07:56:51;;;;;;;11.77;4.50;;;;;;;;;;5119792;27;20057;-47
2022/06/02 07:59:37;;;;;;;6.43;4.30;;;;;;;;;;5110391;27;20031;-46
2022/06/02 08:02:02;;;;;;;52.55;10.43;;;;;;;;;;5112045;27;20051;-47
2022/06/02 08:04:37;;;;;;;21.05;7.28;;;;;;;;;;5118524;27;20062;-50
2022/06/02 08:07:06;;;;;;;15.13;5.80;;;;;;;;;;5107483;27;20061;-51
2022/06/02 08:09:32;;;;;;;22.30;6.90;;;;;;;;;;5101974;27;20028;-52
2022/06/02 08:12:04;;;;;;;20.67;5.93;;;;;;;;;;5108017;28;20096;-58
2022/06/02 08:14:44;;;;;;;19.08;5.95;;;;;;;;;;5110684;27;20107;-58
2022/06/02 08:17:20;;;;;;;9.77;5.32;;;;;;;;;;5112102;27;20104;-59
2022/06/02 08:20:01;;;;;;;6.25;5.47;;;;;;;;;;5118134;28;20132;-59
2022/06/02 08:22:32;;;;;;;20.55;6.85;;;;;;;;;;5118303;28;20058;-59
2022/06/02 08:25:10;;;;;;;14.30;6.75;;;;;;;;;;5117419;27;20047;-59
2022/06/02 08:27:41;;;;;;;6.28;4.93;;;;;;;;;;5120852;27;20032;-58
2022/06/02 08:30:30;;;;;;;9.88;5.55;;;;;;;;;;5122360;27;20106;-54
2022/06/02 08:32:55;;;;;;;10.77;5.80;;;;;;;;;;5106486;27;20035;-55
2022/06/02 08:35:30;;;;;;;18.75;4.70;;;;;;;;;;5115121;27;20566;-57
2022/06/02 08:37:58;;;;;;;15.93;5.32;;;;;;;;;;5125017;27;20047;-53
2022/06/02 08:40:28;;;;;;;8.63;5.07;;;;;;;;;;5116113;27;20059;-56
2022/06/02 08:43:14;;;;;;;19.00;5.07;;;;;;;;;;5113624;27;20071;-56
2022/06/02 08:45:57;;;;;;;11.93;6.63;;;;;;;;;;5113681;27;20131;-54
2022/06/02 08:48:28;;;;;;;4.25;3.42;;;;;;;;;;5115047;27;20122;-55
2022/06/02 08:51:20;;;;;;;10.30;7.15;;;;;;;;;;5112713;27;20034;-57
2022/06/02 08:54:04;;;;;;;12.02;10.52;;;;;;;;;;5102426;27;20693;-57
2022/06/02 08:56:42;;;;;;;8.82;4.90;;;;;;;;;;5121201;27;20051;-48
2022/06/02 08:59:18;;;;;;;11.05;3.50;;;;;;;;;;5123589;27;20043;-53
2022/06/02 09:01:43;;;;;;;26.05;7.43;;;;;;;;;;5120394;27;20505;-55
2022/06/02 09:04:24;;;;;;;46.70;11.57;;;;;;;;;;5121124;27;22005;-54
2022/06/02 09:06:58;;;;;;;29.25;8.57;;;;;;;;;;5117511;27;20604;-55
2022/06/02 09:09:43;;;;;;;8.85;4.78;;;;;;;;;;5115573;27;20173;-54
2022/06/02 09:12:27;;;;;;;11.27;4.28;;;;;;;;;;5120117;27;20067;-56
2022/06/02 09:15:12;;;;;;;28.70;6.13;;;;;;;;;;5119285;27;20077;-58
2022/06/02 09:17:40;;;;;;;13.68;3.78;;;;;;;;;;5116472;27;20088;-61
2022/06/02 09:20:12;;;;;;;6.18;3.85;;;;;;;;;;5121721;27;20078;-58
2022/06/02 09:22:54;;;;;;;21.52;4.38;;;;;;;;;;5118241;27;20052;-58
2022/06/02 09:25:30;;;;;;;9.95;3.33;;;;;;;;;;5117551;27;20094;-57
2022/06/02 09:28:01;;;;;;;21.00;5.63;;;;;;;;;;5119336;27;20047;-56
2022/06/02 09:30:47;;;;;;;3.03;2.22;;;;;;;;;;5119509;27;20601;-57
2022/06/02 09:33:33;;;;;;;20.00;4.38;;;;;;;;;;5082521;27;20114;-56
2022/06/02 09:36:14;;;;;;;3.75;3.08;;;;;;;;;;5123772;27;20039;-57
2022/06/02 09:38:39;;;;;;;7.10;2.05;;;;;;;;;;5120130;27;20155;-58
2022/06/02 09:41:30;;;;;;;4.03;2.05;;;;;;;;;;5119219;27;20525;-58
2022/06/02 09:44:16;;;;;;;2.80;1.88;;;;;;;;;;5098159;27;20073;-58
2022/06/02 09:46:54;;;;;;;2.70;2.20;;;;;;;;;;5119833;27;20349;-58
2022/06/02 09:49:25;;;;;;;21.52;3.67;;;;;;;;;;5119251;27;20039;-60
2022/06/02 09:51:56;;;;;;;10.00;3.60;;;;;;;;;;5116875;27;20042;-56
2022/06/02 09:54:31;;;;;;;8.23;2.75;;;;;;;;;;5115238;27;20043;-58
2022/06/02 10:00:04;;;;;;;24.52;3.55;;;;;;;;;;5111484;27;20074;-60
2022/06/02 10:02:40;;;;;;;4.10;3.35;;;;;;;;;;5113527;27;20825;-57
2022/06/02 10:05:08;;;;;;;12.07;4.20;;;;;;;;;;5122200;27;20542;-58
2022/06/02 10:07:52;;;;;;;4.68;2.75;;;;;;;;;;5118455;27;20120;-58
2022/06/02 10:10:34;;;;;;;7.03;2.15;;;;;;;;;;5119943;27;20075;-56
2022/06/02 10:13:21;;;;;;;10.63;1.65;;;;;;;;;;5122019;27;20050;-59
2022/06/02 10:16:05;;;;;;;14.38;2.85;;;;;;;;;;5122028;27;20139;-59
2022/06/02 10:18:43;;;;;;;3.55;1.92;;;;;;;;;;5114827;27;20036;-56
2022/06/02 10:21:18;;;;;;;6.53;3.20;;;;;;;;;;5117457;27;20047;-60
2022/06/02 10:23:49;;;;;;;19.85;4.10;;;;;;;;;;5117700;27;20515;-57
2022/06/02 10:26:27;;;;;;;5.75;2.70;;;;;;;;;;5117838;27;20055;-53
2022/06/02 10:28:58;;;;;;;2.90;1.77;;;;;;;;;;5119803;27;20042;-56
2022/06/02 10:31:23;;;;;;;6.07;2.63;;;;;;;;;;5119858;27;20039;-54
2022/06/02 10:34:07;;;;;;;3.08;1.88;;;;;;;;;;5119079;27;20047;-58
2022/06/02 10:36:35;;;;;;;7.10;2.50;;;;;;;;;;5118453;27;20061;-57
2022/06/02 10:39:25;;;;;;;10.57;3.08;;;;;;;;;;5115234;27;20201;-58
2022/06/02 10:42:02;;;;;;;9.13;2.13;;;;;;;;;;5120428;27;20047;-58
2022/06/02 10:44:30;;;;;;;5.03;2.67;;;;;;;;;;5116680;27;20495;-58
2022/06/02 10:46:55;;;;;;;3.88;2.03;;;;;;;;;;5117710;27;20511;-58
2022/06/02 10:49:25;;;;;;;5.25;2.45;;;;;;;;;;5121712;27;20043;-58
2022/06/02 10:52:09;;;;;;;11.55;3.65;;;;;;;;;;5120043;27;20112;-58
2022/06/02 10:54:53;;;;;;;5.80;2.17;;;;;;;;;;5118112;27;20056;-60
2022/06/02 10:57:48;;;;;;;17.25;3.28;;;;;;;;;;5119167;27;20043;-59
2022/06/02 11:00:20;;;;;;;12.80;2.20;;;;;;;;;;5095151;27;20175;-59
2022/06/02 11:03:02;;;;;;;9.57;2.53;;;;;;;;;;5101959;27;20047;-59
2022/06/02 11:05:34;;;;;;;4.82;2.47;;;;;;;;;;5104844;27;20068;-58
2022/06/02 11:08:18;;;;;;;2.85;1.75;;;;;;;;;;5109081;27;20047;-60
2022/06/02 11:10:46;;;;;;;6.40;3.35;;;;;;;;;;5118587;27;20066;-60
2022/06/02 11:13:15;;;;;;;5.15;1.40;;;;;;;;;;5112368;27;20035;-60
2022/06/02 11:16:12;;;;;;;9.20;1.65;;;;;;;;;;5108181;27;20047;-59
2022/06/02 11:18:52;;;;;;;26.33;4.78;;;;;;;;;;5061078;27;20500;-59
2022/06/02 11:21:20;;;;;;;5.60;2.75;;;;;;;;;;5122428;27;20091;-59
2022/06/02 11:24:04;;;;;;;3.30;1.90;;;;;;;;;;5120361;27;20233;-59
2022/06/02 11:26:33;;;;;;;8.27;2.30;;;;;;;;;;5120093;27;20047;-59
2022/06/02 11:29:17;;;;;;;4.90;2.28;;;;;;;;;;5117456;27;20054;-59
2022/06/02 11:31:51;;;;;;;8.40;2.17;;;;;;;;;;5116561;27;20504;-58
2022/06/02 11:34:33;;;;;;;4.43;2.17;;;;;;;;;;5115910;27;20073;-59
2022/06/02 11:37:17;;;;;;;22.23;5.93;;;;;;;;;;5110185;27;20074;-58
2022/06/02 11:39:51;;;;;;;17.05;3.80;;;;;;;;;;5116626;27;20066;-57
2022/06/02 11:42:31;;;;;;;6.78;1.95;;;;;;;;;;5119080;27;20043;-59
2022/06/02 11:44:57;;;;;;;;;;;;;;;;;;5112709;27;20046;-58
2022/06/02 11:47:25;;;;;;;4.60;2.53;;;;;;;;;;5117591;27;20515;-59
2022/06/02 11:49:56;;;;;;;8.15;2.78;;;;;;;;;;5117383;27;20040;-59
2022/06/02 11:52:27;;;;;;;8.35;1.38;;;;;;;;;;5110873;27;20055;-59
2022/06/02 11:55:00;;;;;;;9.13;3.00;;;;;;;;;;5117329;27;20039;-58
2022/06/02 11:57:29;;;;;;;5.95;2.72;;;;;;;;;;5116359;27;20063;-58
2022/06/02 12:00:09;;;;;;;10.65;3.13;;;;;;;;;;5102126;28;20089;-59
2022/06/02 12:02:35;;;;;;;6.07;2.47;;;;;;;;;;5118312;27;20035;-58
2022/06/02 12:05:19;;;;;;;5.00;2.15;;;;;;;;;;5119052;27;20079;-59
2022/06/02 12:07:45;;;;;;;8.68;2.67;;;;;;;;;;5105408;27;20087;-61
2022/06/02 12:10:25;;;;;;;11.63;2.58;;;;;;;;;;5115689;27;20039;-58
2022/06/02 12:12:50;;;;;;;5.93;2.67;;;;;;;;;;5111723;28;20169;-58
2022/06/02 12:15:16;;;;;;;5.85;2.53;;;;;;;;;;5110581;27;20515;-59
2022/06/02 12:18:01;;;;;;;5.05;2.80;;;;;;;;;;5106104;27;20061;-59
2022/06/02 12:20:36;;;;;;;12.18;2.72;;;;;;;;;;5080345;28;20107;-58
2022/06/02 12:23:19;;;;;;;4.55;2.15;;;;;;;;;;5113476;28;20031;-59
2022/06/02 12:25:50;;;;;;;7.30;3.38;;;;;;;;;;5103619;27;20064;-59
2022/06/02 12:28:21;;;;;;;4.35;2.53;;;;;;;;;;5105263;28;20039;-57
2022/06/02 12:30:56;;;;;;;6.97;3.28;;;;;;;;;;5105691;27;20046;-58
2022/06/02 12:33:36;;;;;;;14.23;3.28;;;;;;;;;;5104956;28;20055;-57
2022/06/02 12:36:01;;;;;;;;;;;;;;;;;;5108744;27;20055;-57
2022/06/02 12:38:38;;;;;;;22.50;4.35;;;;;;;;;;5109616;28;19916;-57
2022/06/02 12:41:10;;;;;;;70.60;10.75;;;;;;;;;;5114777;27;20039;-58
2022/06/02 12:43:39;;;;;;;93.45;15.05;;;;;;;;;;5117411;28;20055;-57
2022/06/02 12:46:04;;;;;;;9.50;2.78;;;;;;;;;;5114728;28;20043;-59
2022/06/02 12:48:51;;;;;;;3.92;2.15;;;;;;;;;;5112612;28;20036;-57
2022/06/02 12:51:28;;;;;;;35.38;4.95;;;;;;;;;;5111523;27;20115;-57
2022/06/02 12:54:00;;;;;;;4.13;1.50;;;;;;;;;;5113539;28;20563;-61
2022/06/02 12:57:04;;;;;;;23.83;3.97;;;;;;;;;;5107174;28;20048;-56
2022/06/02 12:59:32;;;;;;;13.23;3.50;;;;;;;;;;5044243;28;20128;-51
2022/06/02 13:02:05;;;;;;;26.95;8.63;;;;;;;;;;5048262;28;20083;-58
2022/06/02 13:04:31;;;;;;;6.30;3.20;;;;;;;;;;5070743;28;20572;-56
2022/06/02 13:07:02;;;;;;;9.48;4.03;;;;;;;;;;5115039;28;20059;-57
2022/06/02 13:09:27;;;;;;;6.22;2.05;;;;;;;;;;5105457;27;20538;-56
2022/06/02 13:12:25;;;;;;;5.63;3.22;;;;;;;;;;5116030;27;20027;-56
2022/06/02 13:14:53;;;;;;;7.82;3.20;;;;;;;;;;5095110;27;20083;-57
2022/06/02 13:17:19;;;;;;;3.97;2.20;;;;;;;;;;5117752;27;20098;-55
2022/06/02 13:19:50;;;;;;;7.63;3.58;;;;;;;;;;5105539;27;20317;-56
2022/06/02 13:22:35;;;;;;;5.07;3.40;;;;;;;;;;5108944;27;20063;-56
2022/06/02 13:25:00;;;;;;;8.98;2.47;;;;;;;;;;5115600;27;20539;-56
2022/06/02 13:27:31;;;;;;;1410.80;296.27;;;;;;;;;;5121465;27;20104;-56
2022/06/02 13:30:04;;;;;;;12.05;3.33;;;;;;;;;;5114827;27;20527;-57
2022/06/02 13:32:35;;;;;;;9.55;3.45;;;;;;;;;;5116878;27;20054;-53
2022/06/02 13:35:06;;;;;;;8.73;2.10;;;;;;;;;;5119784;27;20057;-56
2022/06/02 13:37:50;;;;;;;6.93;2.67;;;;;;;;;;5120983;27;20117;-57
2022/06/02 13:40:16;;;;;;;23.95;6.07;;;;;;;;;;5110399;27;20043;-57
2022/06/02 13:43:00;;;;;;;14.15;2.22;;;;;;;;;;5113584;27;20046;-55
2022/06/02 13:45:38;;;;;;;7.00;1.90;;;;;;;;;;5110926;27;20044;-57
2022/06/02 13:48:35;;;;;;;20.45;3.92;;;;;;;;;;5105549;27;21000;-56
2022/06/02 13:51:22;;;;;;;12.43;1.77;;;;;;;;;;5115587;27;20153;-57
2022/06/02 13:59:50;;;;;;;5.78;2.58;;;;;;;;;;5113639;27;20041;-56
2022/06/02 14:02:21;;;;;;;15.30;3.50;;;;;;;;;;5103609;27;20126;-56
2022/06/02 14:05:05;;;;;;;4.68;2.70;;;;;;;;;;5112760;27;20058;-55
2022/06/02 14:07:48;;;;;;;9.60;3.20;;;;;;;;;;5116057;27;20042;-57
2022/06/02 14:10:44;;;;;;;8.80;2.20;;;;;;;;;;5114572;27;20040;-55
2022/06/02 14:13:19;;;;;;;4.93;2.85;;;;;;;;;;5118676;27;20047;-56
2022/06/02 14:15:52;;;;;;;9.93;3.72;;;;;;;;;;5116932;27;20464;-56
2022/06/02 14:18:36;;;;;;;14.40;3.67;;;;;;;;;;5118874;27;20826;-56
2022/06/02 14:21:07;;;;;;;47.10;6.88;;;;;;;;;;5107134;27;20047;-56
2022/06/02 14:23:56;;;;;;;15.95;2.38;;;;;;;;;;5109527;27;20047;-58
2022/06/02 14:26:35;;;;;;;5.32;2.03;;;;;;;;;;5091215;27;20594;-56
2022/06/02 14:29:16;;;;;;;2.17;1.88;;;;;;;;;;5118032;27;20048;-55
2022/06/02 14:31:45;;;;;;;8.80;2.80;;;;;;;;;;5113860;27;20047;-55
2022/06/02 14:34:22;;;;;;;4.68;3.28;;;;;;;;;;5119888;27;20066;-56
2022/06/02 14:37:11;;;;;;;4.20;3.05;;;;;;;;;;5119568;27;20131;-56
2022/06/02 14:39:55;;;;;;;75.68;11.07;;;;;;;;;;5119381;27;20134;-56
2022/06/02 14:43:03;;;;;;;13.80;3.58;;;;;;;;;;5118594;27;20050;-56
2022/06/02 14:45:12;;;;;;;4.25;2.38;;;;;;;;;;5119583;27;20540;-56
2022/06/02 14:47:57;;;;;;;6.47;2.40;;;;;;;;;;5122060;27;20147;-56
2022/06/02 14:50:28;;;;;;;14.07;12.70;;;;;;;;;;5117435;27;20126;-54
2022/06/02 14:52:53;;;;;;;9.23;2.72;;;;;;;;;;5109312;27;20629;-56
2022/06/02 14:55:26;;;;;;;7.32;3.58;;;;;;;;;;5120120;27;20552;-55
2022/06/02 14:58:10;;;;;;;17.52;4.32;;;;;;;;;;5119214;27;20043;-55
2022/06/02 15:00:41;;;;;;;9.32;3.70;;;;;;;;;;5119041;27;20051;-56
2022/06/02 15:03:06;;;;;;;;;;;;;;;;;;5121884;27;20066;-55
2022/06/02 15:05:50;;;;;;;71.45;13.00;;;;;;;;;;5118804;27;20380;-54
2022/06/02 15:08:16;;;;;;;332.70;71.93;;;;;;;;;;5121721;27;20068;-55
2022/06/02 15:10:41;;;;;;;507.70;103.80;;;;;;;;;;5108769;27;20051;-55
2022/06/02 15:13:27;;;;;;;36.35;10.48;;;;;;;;;;5101370;27;20113;-56
2022/06/02 15:16:28;;;;;;;494.67;116.03;;;;;;;;;;5112644;27;20040;-56
2022/06/02 15:18:56;;;;;;;;;;;;;;;;;;5059058;28;20082;-55
2022/06/02 15:21:27;;;;;;;9.43;5.95;;;;;;;;;;5100579;27;19911;-55
2022/06/02 15:23:59;;;;;;;18.98;4.32;;;;;;;;;;5112799;27;20047;-56
2022/06/02 15:26:39;;;;;;;6.28;3.50;;;;;;;;;;5117719;27;20089;-56
2022/06/02 15:29:23;;;;;;;37.40;7.50;;;;;;;;;;5115014;27;20548;-56
2022/06/02 15:32:07;;;;;;;5.32;3.33;;;;;;;;;;5115774;27;20039;-57
2022/06/02 15:34:35;;;;;;;430.58;96.97;;;;;;;;;;5100194;28;20126;-55
2022/06/02 15:37:00;;;;;;;13.57;5.32;;;;;;;;;;5112499;27;20188;-56
2022/06/02 15:39:32;;;;;;;10.27;4.85;;;;;;;;;;5115243;27;20411;-56